Rhonda Lamulle — WDC8441 — position and weather

sailwx.info

Track history (hours):
 
Tides and Currents Weather Stations Pressure Air Temp Water Temp Dewpoint Dewpoint Depression Visibility Wind Speed Wind Dir Waves Ship Positions

Rhonda Lamulle

Owner: Florida Marine, LLC, Mandeville, LA. More information available from US FCC via Universal Licensing System and Coast Guard Vessel Documentation Center.

Last reported at 2017-Jun-29 00:40 UTC. Time now 2017-Jun-29 12:32 UTC.
Position N 30°24' W 086°54'.

Length 13 m; draft 3 m.

Type: Towing. MMSI: 367087104.

Date/timePositionNaut miles runAvg speedWind from/ knotsBaromVisibWave heightAir tempDewpointWater temp
2017-Jun-29 00:40N 30°24' W 086°54'3 6.5
2017-Jun-29 00:14N 30°24' W 086°51'10 6.0
2017-Jun-28 22:34N 30°24' W 086°39'0 5.5
2017-Jun-28 22:30N 30°24' W 086°39'3 5.5
2017-Jun-28 22:00N 30°24' W 086°36'3 6.8
2017-Jun-28 21:30N 30°25' W 086°32'4 7.5
2017-Jun-28 21:00N 30°27' W 086°29'2 4.2
2017-Jun-28 20:30N 30°29' W 086°29'1 1.1
2017-Jun-28 20:00N 30°29' W 086°29'0 0.0
2017-Jun-28 19:30N 30°29' W 086°29'0 0.0
2017-Jun-28 19:00N 30°29' W 086°29'0 0.0
2017-Jun-28 18:30N 30°29' W 086°29'0 0.0
2017-Jun-28 18:00N 30°29' W 086°29'0 0.0
2017-Jun-28 17:30N 30°29' W 086°29'0 0.0
2017-Jun-28 17:00N 30°29' W 086°29'0 0.0
2017-Jun-28 16:30N 30°29' W 086°29'0 0.0
2017-Jun-28 16:00N 30°29' W 086°29'0 0.0
2017-Jun-28 15:30N 30°29' W 086°29'0 0.0
2017-Jun-28 15:00N 30°29' W 086°29'0 0.0
2017-Jun-28 14:00N 30°29' W 086°29'0 0.0
2017-Jun-28 13:30N 30°29' W 086°29'0 0.0
2017-Jun-28 13:00N 30°29' W 086°29'0 0.0
2017-Jun-28 12:30N 30°29' W 086°29'0 0.3
2017-Jun-28 12:00N 30°29' W 086°29'1 1.8
2017-Jun-28 11:30N 30°28' W 086°28'3 6.3
2017-Jun-28 11:00N 30°26' W 086°26'3 6.4
2017-Jun-28 10:30N 30°26' W 086°22'3 6.3
2017-Jun-28 10:00N 30°26' W 086°19'3 5.7
2017-Jun-28 09:29N 30°26' W 086°15'  
2017-Jun-26 03:59N 30°26' W 086°15'3 4.0
2017-Jun-26 03:15N 30°26' W 086°19'1 4.1
2017-Jun-26 03:00N 30°26' W 086°20'2 4.1
2017-Jun-26 02:30N 30°26' W 086°22'2 3.9
2017-Jun-26 02:00N 30°26' W 086°25'2 4.2
2017-Jun-26 01:30N 30°26' W 086°27'2 4.2
2017-Jun-26 01:00N 30°26' W 086°29'2 4.0
2017-Jun-26 00:30N 30°25' W 086°32'2 3.8
2017-Jun-25 23:58N 30°24' W 086°34'12 3.9
2017-Jun-25 20:47N 30°24' W 086°48'5 4.2
2017-Jun-25 19:38N 30°24' W 086°54'  
Track history (hours):
 
Tides and Currents Weather Stations Pressure Air Temp Water Temp Dewpoint Dewpoint Depression Visibility Wind Speed Wind Dir Waves Ship Positions

Rhonda Lamulle

Owner: Florida Marine, LLC, Mandeville, LA. More information available from US FCC via Universal Licensing System and Coast Guard Vessel Documentation Center.

Last reported at 2017-Jun-29 00:40 UTC. Time now 2017-Jun-29 12:32 UTC.
Position N 30°24' W 086°54'.

Length 13 m; draft 3 m.

Type: Towing. MMSI: 367087104.

Date/timePositionNaut miles runAvg speedWind from/ knotsBaromVisibWave heightAir tempDewpointWater temp
2017-Jun-29 00:40N 30°24' W 086°54'3 6.5
2017-Jun-29 00:14N 30°24' W 086°51'10 6.0
2017-Jun-28 22:34N 30°24' W 086°39'0 5.5
2017-Jun-28 22:30N 30°24' W 086°39'3 5.5
2017-Jun-28 22:00N 30°24' W 086°36'3 6.8
2017-Jun-28 21:30N 30°25' W 086°32'4 7.5
2017-Jun-28 21:00N 30°27' W 086°29'2 4.2
2017-Jun-28 20:30N 30°29' W 086°29'1 1.1
2017-Jun-28 20:00N 30°29' W 086°29'0 0.0
2017-Jun-28 19:30N 30°29' W 086°29'0 0.0
2017-Jun-28 19:00N 30°29' W 086°29'0 0.0
2017-Jun-28 18:30N 30°29' W 086°29'0 0.0
2017-Jun-28 18:00N 30°29' W 086°29'0 0.0
2017-Jun-28 17:30N 30°29' W 086°29'0 0.0
2017-Jun-28 17:00N 30°29' W 086°29'0 0.0
2017-Jun-28 16:30N 30°29' W 086°29'0 0.0
2017-Jun-28 16:00N 30°29' W 086°29'0 0.0
2017-Jun-28 15:30N 30°29' W 086°29'0 0.0
2017-Jun-28 15:00N 30°29' W 086°29'0 0.0
2017-Jun-28 14:00N 30°29' W 086°29'0 0.0
2017-Jun-28 13:30N 30°29' W 086°29'0 0.0
2017-Jun-28 13:00N 30°29' W 086°29'0 0.0
2017-Jun-28 12:30N 30°29' W 086°29'0 0.3
2017-Jun-28 12:00N 30°29' W 086°29'1 1.8
2017-Jun-28 11:30N 30°28' W 086°28'3 6.3
2017-Jun-28 11:00N 30°26' W 086°26'3 6.4
2017-Jun-28 10:30N 30°26' W 086°22'3 6.3
2017-Jun-28 10:00N 30°26' W 086°19'3 5.7
2017-Jun-28 09:29N 30°26' W 086°15'  
2017-Jun-26 03:59N 30°26' W 086°15'3 4.0
2017-Jun-26 03:15N 30°26' W 086°19'1 4.1
2017-Jun-26 03:00N 30°26' W 086°20'2 4.1
2017-Jun-26 02:30N 30°26' W 086°22'2 3.9
2017-Jun-26 02:00N 30°26' W 086°25'2 4.2
2017-Jun-26 01:30N 30°26' W 086°27'2 4.2
2017-Jun-26 01:00N 30°26' W 086°29'2 4.0
2017-Jun-26 00:30N 30°25' W 086°32'2 3.8
2017-Jun-25 23:58N 30°24' W 086°34'12 3.9
2017-Jun-25 20:47N 30°24' W 086°48'5 4.2
2017-Jun-25 19:38N 30°24' W 086°54'  

Dump ship's entire track history